Woodward, OK

9:27 AM CST on January 20, 2017 (GMT -0600)
West Woodward | | Change Station
Active Advisory: Dense Fog Advisory

Elev 2188 ft 36.44 °N, 99.52 °W | Updated 12 minutes ago

Overcast
Overcast
37 °F
Feels Like 31 °F
N
8
Wind Variable Wind from WSW

Today
High -- | Low -- °F
--% Chance of Precip.
Yesterday
High -- | Low -- °F
Precip. -- in
Pressure 29.55 in
Visibility 0.2 miles
Clouds Overcast 100 ft
Windchill 31 °F
Dew Point 37 °F
Humidity 100%
Rainfall 0.00 in
Snow Depth Not available.
7:46 AM 5:51 PM
Last Quarter, 43% visible
METAR KWWR 201515Z AUTO 25007KT 1/4SM -SN OVC001 03/03 A2955 RMK AO2
Pressure 29.55 in
Visibility 0.2 miles
Clouds Overcast 100 ft
Windchill 31 °F
Dew Point 37 °F
Humidity 100%
Rainfall 0.00 in
Snow Depth Not available.
7:46 AM 5:51 PM
Last Quarter, 43% visible
METAR KWWR 201515Z AUTO 25007KT 1/4SM -SN OVC001 03/03 A2955 RMK AO2

Get Your Daily Forecast Email!

Thanks for signing up!

Be on the lookout for a verification email in your inbox.

You'll start receiving the daily forecast at 8 AM.

×

10-Day Weather Forecast

Almanac

Astronomy

Jan. 20, 2017 Rise Set
Actual Time
Civil Twilight
Nautical Twilight
Astronomical Twilight
Moon
Length of Visible Light
Length of Day
Tomorrow will be .
, % of the Moon is Illuminated

Today's Extremes

State Highs State Lows

Community

WunderPhotos

Upload Photos

1,962,540 photos uploaded!

WunderBlog® & News

Nearby

Air Quality

  Air Quality AQ Index Pollutant
Not available.

Snow Depth

Station Depth Elevation

Earthquake Activity

City Distance Mag. Time & Date
Minimum magnitude displayed is 2.5.

Coastal Water Temperatures

Place Temperature

Stations

Nearby Weather Stations

Station Location Temp. Windchill Dew Point Humidity Wind Precip. Elev Updated Type
                   

Watches & Warnings

Dense Fog Advisory
Issued: 7:32 AM CST Jan. 20, 2017 – National Weather Service

... Dense fog advisory remains in effect until 10 am CST this
morning...

* visibility... less than one quarter mile.

* Impacts... dense fog will result in hazardous driving
conditions due to low visibility.

Precautionary/preparedness actions...

A dense fog advisory means visibilities will frequently be
reduced to less than one quarter mile. If driving... slow down...
use your headlights... and leave plenty of distance ahead of you.



Kurtz